sensor_id;sensor_type;location;lat;lon;timestamp;P1;durP1;ratioP1;P2;durP2;ratioP2
16127;SDS011;8168;49.036;7.690;2022-08-11T00:00:41;5.87;;;3.23;;
16127;SDS011;8168;49.036;7.690;2022-08-11T00:03:15;3.73;;;3.43;;
16127;SDS011;8168;49.036;7.690;2022-08-11T00:05:52;3.57;;;3.27;;
16127;SDS011;8168;49.036;7.690;2022-08-11T00:08:25;3.30;;;3.00;;
16127;SDS011;8168;49.036;7.690;2022-08-11T00:10:58;4.10;;;3.40;;
16127;SDS011;8168;49.036;7.690;2022-08-11T00:16:15;3.80;;;3.33;;
16127;SDS011;8168;49.036;7.690;2022-08-11T00:18:52;3.57;;;3.27;;
16127;SDS011;8168;49.036;7.690;2022-08-11T00:21:25;4.30;;;3.30;;
16127;SDS011;8168;49.036;7.690;2022-08-11T00:23:59;3.70;;;3.30;;
16127;SDS011;8168;49.036;7.690;2022-08-11T00:26:30;3.60;;;3.30;;
16127;SDS011;8168;49.036;7.690;2022-08-11T00:29:09;3.40;;;3.13;;
16127;SDS011;8168;49.036;7.690;2022-08-11T00:32:00;3.53;;;3.23;;
16127;SDS011;8168;49.036;7.690;2022-08-11T00:34:35;4.00;;;3.30;;
16127;SDS011;8168;49.036;7.690;2022-08-11T00:37:10;3.97;;;3.67;;
16127;SDS011;8168;49.036;7.690;2022-08-11T00:39:49;4.10;;;3.80;;
16127;SDS011;8168;49.036;7.690;2022-08-11T00:48:35;4.80;;;3.60;;
16127;SDS011;8168;49.036;7.690;2022-08-11T00:53:52;4.03;;;3.63;;
16127;SDS011;8168;49.036;7.690;2022-08-11T01:05:59;3.80;;;3.50;;
16127;SDS011;8168;49.036;7.690;2022-08-11T01:11:47;3.90;;;3.60;;
16127;SDS011;8168;49.036;7.690;2022-08-11T01:17:54;5.13;;;3.70;;
16127;SDS011;8168;49.036;7.690;2022-08-11T01:20:54;4.93;;;4.07;;
16127;SDS011;8168;49.036;7.690;2022-08-11T01:32:19;4.27;;;3.87;;
16127;SDS011;8168;49.036;7.690;2022-08-11T01:44:11;4.00;;;3.60;;
16127;SDS011;8168;49.036;7.690;2022-08-11T01:50:26;3.63;;;3.33;;
16127;SDS011;8168;49.036;7.690;2022-08-11T01:58:47;4.13;;;3.73;;
16127;SDS011;8168;49.036;7.690;2022-08-11T02:01:36;3.63;;;3.33;;
16127;SDS011;8168;49.036;7.690;2022-08-11T02:07:31;3.67;;;3.37;;
16127;SDS011;8168;49.036;7.690;2022-08-11T02:10:34;3.93;;;3.63;;
16127;SDS011;8168;49.036;7.690;2022-08-11T02:13:39;5.10;;;3.57;;
16127;SDS011;8168;49.036;7.690;2022-08-11T02:19:23;4.80;;;4.30;;
16127;SDS011;8168;49.036;7.690;2022-08-11T02:22:30;4.27;;;3.87;;
16127;SDS011;8168;49.036;7.690;2022-08-11T02:31:59;4.17;;;3.87;;
16127;SDS011;8168;49.036;7.690;2022-08-11T02:37:33;4.10;;;3.70;;
16127;SDS011;8168;49.036;7.690;2022-08-11T02:43:10;3.90;;;3.60;;
16127;SDS011;8168;49.036;7.690;2022-08-11T02:45:59;4.27;;;3.80;;
16127;SDS011;8168;49.036;7.690;2022-08-11T02:57:42;4.10;;;3.80;;
16127;SDS011;8168;49.036;7.690;2022-08-11T03:00:34;4.33;;;3.97;;
16127;SDS011;8168;49.036;7.690;2022-08-11T03:03:24;4.10;;;3.80;;
16127;SDS011;8168;49.036;7.690;2022-08-11T03:06:04;4.33;;;3.97;;
16127;SDS011;8168;49.036;7.690;2022-08-11T03:20:37;4.20;;;3.70;;
16127;SDS011;8168;49.036;7.690;2022-08-11T03:32:02;4.07;;;3.77;;
16127;SDS011;8168;49.036;7.690;2022-08-11T03:34:38;3.90;;;3.60;;
16127;SDS011;8168;49.036;7.690;2022-08-11T03:40:14;4.87;;;4.00;;
16127;SDS011;8168;49.036;7.690;2022-08-11T03:45:57;4.17;;;3.87;;
16127;SDS011;8168;49.036;7.690;2022-08-11T04:17:21;4.67;;;4.27;;
16127;SDS011;8168;49.036;7.690;2022-08-11T04:50:53;5.87;;;4.10;;
16127;SDS011;8168;49.036;7.690;2022-08-11T04:56:42;4.60;;;4.20;;
16127;SDS011;8168;49.036;7.690;2022-08-11T04:59:59;4.73;;;4.33;;
16127;SDS011;8168;49.036;7.690;2022-08-11T05:14:52;6.80;;;4.70;;
16127;SDS011;8168;49.036;7.690;2022-08-11T05:17:44;4.43;;;4.03;;
16127;SDS011;8168;49.036;7.690;2022-08-11T05:20:53;5.00;;;4.57;;
16127;SDS011;8168;49.036;7.690;2022-08-11T05:23:48;4.67;;;4.07;;
16127;SDS011;8168;49.036;7.690;2022-08-11T05:26:51;4.67;;;4.17;;
16127;SDS011;8168;49.036;7.690;2022-08-11T05:29:44;5.10;;;4.70;;
16127;SDS011;8168;49.036;7.690;2022-08-11T05:32:38;4.43;;;4.07;;
16127;SDS011;8168;49.036;7.690;2022-08-11T05:35:31;6.47;;;4.60;;
16127;SDS011;8168;49.036;7.690;2022-08-11T05:38:20;4.57;;;4.17;;
16127;SDS011;8168;49.036;7.690;2022-08-11T05:41:12;5.33;;;4.37;;
16127;SDS011;8168;49.036;7.690;2022-08-11T05:44:03;4.57;;;4.17;;
16127;SDS011;8168;49.036;7.690;2022-08-11T05:46:52;4.73;;;3.70;;
16127;SDS011;8168;49.036;7.690;2022-08-11T05:49:47;5.13;;;4.50;;
16127;SDS011;8168;49.036;7.690;2022-08-11T05:52:37;5.67;;;4.13;;
16127;SDS011;8168;49.036;7.690;2022-08-11T05:55:27;4.60;;;4.20;;
16127;SDS011;8168;49.036;7.690;2022-08-11T05:58:17;4.57;;;4.00;;
16127;SDS011;8168;49.036;7.690;2022-08-11T06:00:49;5.17;;;4.63;;
16127;SDS011;8168;49.036;7.690;2022-08-11T06:03:25;4.60;;;4.20;;
16127;SDS011;8168;49.036;7.690;2022-08-11T06:05:58;4.30;;;3.90;;
16127;SDS011;8168;49.036;7.690;2022-08-11T06:08:29;4.33;;;3.93;;
16127;SDS011;8168;49.036;7.690;2022-08-11T06:11:05;4.13;;;3.80;;
16127;SDS011;8168;49.036;7.690;2022-08-11T06:13:36;6.10;;;3.83;;
16127;SDS011;8168;49.036;7.690;2022-08-11T06:16:13;4.20;;;3.73;;
16127;SDS011;8168;49.036;7.690;2022-08-11T06:18:51;4.83;;;3.90;;
16127;SDS011;8168;49.036;7.690;2022-08-11T06:21:22;4.07;;;3.77;;
16127;SDS011;8168;49.036;7.690;2022-08-11T06:23:53;5.90;;;4.00;;
16127;SDS011;8168;49.036;7.690;2022-08-11T06:26:25;7.17;;;3.90;;
16127;SDS011;8168;49.036;7.690;2022-08-11T06:28:56;3.90;;;3.57;;
16127;SDS011;8168;49.036;7.690;2022-08-11T06:31:28;4.40;;;4.00;;
16127;SDS011;8168;49.036;7.690;2022-08-11T06:36:56;3.93;;;3.63;;
16127;SDS011;8168;49.036;7.690;2022-08-11T06:45:19;4.20;;;3.23;;
16127;SDS011;8168;49.036;7.690;2022-08-11T06:47:52;7.30;;;3.80;;
16127;SDS011;8168;49.036;7.690;2022-08-11T06:50:23;3.90;;;3.50;;
16127;SDS011;8168;49.036;7.690;2022-08-11T06:53:14;4.77;;;3.40;;
16127;SDS011;8168;49.036;7.690;2022-08-11T06:55:48;4.97;;;3.40;;
16127;SDS011;8168;49.036;7.690;2022-08-11T06:58:38;4.03;;;3.57;;
16127;SDS011;8168;49.036;7.690;2022-08-11T07:01:31;4.00;;;3.43;;
16127;SDS011;8168;49.036;7.690;2022-08-11T07:10:09;3.70;;;2.70;;
16127;SDS011;8168;49.036;7.690;2022-08-11T07:13:40;2.70;;;2.50;;
16127;SDS011;8168;49.036;7.690;2022-08-11T07:16:31;6.60;;;2.83;;
16127;SDS011;8168;49.036;7.690;2022-08-11T07:19:06;3.13;;;2.77;;
16127;SDS011;8168;49.036;7.690;2022-08-11T07:21:56;2.70;;;2.47;;
16127;SDS011;8168;49.036;7.690;2022-08-11T07:24:54;3.77;;;2.60;;
16127;SDS011;8168;49.036;7.690;2022-08-11T07:27:55;2.57;;;2.37;;
16127;SDS011;8168;49.036;7.690;2022-08-11T07:30:48;4.07;;;2.50;;
16127;SDS011;8168;49.036;7.690;2022-08-11T07:33:31;2.80;;;2.60;;
16127;SDS011;8168;49.036;7.690;2022-08-11T07:36:13;5.20;;;2.67;;
16127;SDS011;8168;49.036;7.690;2022-08-11T07:38:48;5.33;;;2.80;;
16127;SDS011;8168;49.036;7.690;2022-08-11T07:41:22;3.10;;;2.90;;
16127;SDS011;8168;49.036;7.690;2022-08-11T07:43:55;3.90;;;3.03;;
16127;SDS011;8168;49.036;7.690;2022-08-11T07:46:38;3.43;;;2.90;;
16127;SDS011;8168;49.036;7.690;2022-08-11T07:49:30;3.03;;;2.63;;
16127;SDS011;8168;49.036;7.690;2022-08-11T07:52:25;4.00;;;2.70;;
16127;SDS011;8168;49.036;7.690;2022-08-11T07:55:12;2.93;;;2.70;;
16127;SDS011;8168;49.036;7.690;2022-08-11T07:57:46;2.70;;;2.50;;
16127;SDS011;8168;49.036;7.690;2022-08-11T08:00:39;4.67;;;2.50;;
16127;SDS011;8168;49.036;7.690;2022-08-11T08:03:33;2.37;;;2.17;;
16127;SDS011;8168;49.036;7.690;2022-08-11T08:06:25;3.07;;;2.80;;
16127;SDS011;8168;49.036;7.690;2022-08-11T08:09:16;3.83;;;2.63;;
16127;SDS011;8168;49.036;7.690;2022-08-11T08:12:07;3.00;;;2.20;;
16127;SDS011;8168;49.036;7.690;2022-08-11T08:14:57;2.83;;;2.53;;
16127;SDS011;8168;49.036;7.690;2022-08-11T08:17:49;2.83;;;2.60;;
16127;SDS011;8168;49.036;7.690;2022-08-11T08:20:27;2.60;;;2.40;;
16127;SDS011;8168;49.036;7.690;2022-08-11T08:23:09;3.03;;;2.40;;
16127;SDS011;8168;49.036;7.690;2022-08-11T08:25:41;3.27;;;2.70;;
16127;SDS011;8168;49.036;7.690;2022-08-11T08:28:15;2.37;;;2.17;;
16127;SDS011;8168;49.036;7.690;2022-08-11T08:30:48;2.70;;;2.50;;
16127;SDS011;8168;49.036;7.690;2022-08-11T08:33:30;2.80;;;2.60;;
16127;SDS011;8168;49.036;7.690;2022-08-11T08:36:01;2.40;;;2.20;;
16127;SDS011;8168;49.036;7.690;2022-08-11T08:38:41;3.10;;;2.40;;
16127;SDS011;8168;49.036;7.690;2022-08-11T08:41:18;2.80;;;2.50;;
16127;SDS011;8168;49.036;7.690;2022-08-11T08:43:53;3.57;;;2.33;;
16127;SDS011;8168;49.036;7.690;2022-08-11T08:47:11;2.37;;;2.17;;
16127;SDS011;8168;49.036;7.690;2022-08-11T08:49:30;3.33;;;2.50;;
16127;SDS011;8168;49.036;7.690;2022-08-11T08:52:04;2.20;;;2.10;;
16127;SDS011;8168;49.036;7.690;2022-08-11T08:54:38;2.70;;;2.50;;
16127;SDS011;8168;49.036;7.690;2022-08-11T08:57:13;3.55;;;2.38;;
16127;SDS011;8168;49.036;7.690;2022-08-11T08:59:47;2.72;;;2.28;;
16127;SDS011;8168;49.036;7.690;2022-08-11T09:02:22;2.67;;;2.38;;
16127;SDS011;8168;49.036;7.690;2022-08-11T09:04:54;2.70;;;2.50;;
16127;SDS011;8168;49.036;7.690;2022-08-11T09:07:26;2.85;;;2.30;;
16127;SDS011;8168;49.036;7.690;2022-08-11T09:09:57;3.13;;;2.45;;
16127;SDS011;8168;49.036;7.690;2022-08-11T09:12:29;3.30;;;2.22;;
16127;SDS011;8168;49.036;7.690;2022-08-11T09:15:02;2.70;;;2.15;;
16127;SDS011;8168;49.036;7.690;2022-08-11T09:17:36;2.20;;;2.00;;
16127;SDS011;8168;49.036;7.690;2022-08-11T09:22:54;4.32;;;2.00;;
16127;SDS011;8168;49.036;7.690;2022-08-11T09:25:45;3.00;;;2.05;;
16127;SDS011;8168;49.036;7.690;2022-08-11T09:28:35;2.90;;;2.20;;
16127;SDS011;8168;49.036;7.690;2022-08-11T09:31:06;3.88;;;2.30;;
16127;SDS011;8168;49.036;7.690;2022-08-11T09:33:40;4.60;;;2.40;;
16127;SDS011;8168;49.036;7.690;2022-08-11T09:36:12;2.58;;;1.92;;
16127;SDS011;8168;49.036;7.690;2022-08-11T09:39:01;2.10;;;1.90;;
16127;SDS011;8168;49.036;7.690;2022-08-11T09:41:53;3.00;;;1.90;;
16127;SDS011;8168;49.036;7.690;2022-08-11T09:44:25;4.05;;;2.03;;
16127;SDS011;8168;49.036;7.690;2022-08-11T09:49:57;6.07;;;2.35;;
16127;SDS011;8168;49.036;7.690;2022-08-11T09:52:31;2.30;;;2.10;;
16127;SDS011;8168;49.036;7.690;2022-08-11T09:55:06;2.45;;;2.25;;
16127;SDS011;8168;49.036;7.690;2022-08-11T09:57:43;5.13;;;2.22;;
16127;SDS011;8168;49.036;7.690;2022-08-11T10:00:34;2.20;;;2.10;;
16127;SDS011;8168;49.036;7.690;2022-08-11T10:03:11;3.22;;;2.40;;
16127;SDS011;8168;49.036;7.690;2022-08-11T10:05:48;2.40;;;2.20;;
16127;SDS011;8168;49.036;7.690;2022-08-11T10:08:43;2.58;;;2.17;;
16127;SDS011;8168;49.036;7.690;2022-08-11T10:11:17;3.08;;;2.35;;
16127;SDS011;8168;49.036;7.690;2022-08-11T10:13:52;2.50;;;2.30;;
16127;SDS011;8168;49.036;7.690;2022-08-11T10:16:42;5.00;;;2.25;;
16127;SDS011;8168;49.036;7.690;2022-08-11T10:19:14;2.78;;;2.20;;
16127;SDS011;8168;49.036;7.690;2022-08-11T10:21:51;3.17;;;2.40;;
16127;SDS011;8168;49.036;7.690;2022-08-11T10:24:42;2.65;;;2.42;;
16127;SDS011;8168;49.036;7.690;2022-08-11T10:27:32;2.17;;;2.03;;
16127;SDS011;8168;49.036;7.690;2022-08-11T10:30:03;3.22;;;1.88;;
16127;SDS011;8168;49.036;7.690;2022-08-11T10:32:55;2.42;;;2.22;;
16127;SDS011;8168;49.036;7.690;2022-08-11T10:35:45;2.47;;;2.28;;
16127;SDS011;8168;49.036;7.690;2022-08-11T10:38:17;4.55;;;2.05;;
16127;SDS011;8168;49.036;7.690;2022-08-11T10:40:48;2.75;;;1.85;;
16127;SDS011;8168;49.036;7.690;2022-08-11T10:43:41;3.25;;;2.40;;
16127;SDS011;8168;49.036;7.690;2022-08-11T10:46:13;2.35;;;2.15;;
16127;SDS011;8168;49.036;7.690;2022-08-11T10:49:03;3.85;;;2.00;;
16127;SDS011;8168;49.036;7.690;2022-08-11T10:51:35;2.78;;;2.10;;
16127;SDS011;8168;49.036;7.690;2022-08-11T10:54:25;3.85;;;2.45;;
16127;SDS011;8168;49.036;7.690;2022-08-11T10:57:14;4.25;;;2.30;;
16127;SDS011;8168;49.036;7.690;2022-08-11T11:00:05;5.97;;;2.30;;
16127;SDS011;8168;49.036;7.690;2022-08-11T11:02:39;5.10;;;1.90;;
16127;SDS011;8168;49.036;7.690;2022-08-11T11:05:15;3.03;;;2.25;;
16127;SDS011;8168;49.036;7.690;2022-08-11T11:08:14;3.35;;;2.10;;
16127;SDS011;8168;49.036;7.690;2022-08-11T11:11:07;2.40;;;2.20;;
16127;SDS011;8168;49.036;7.690;2022-08-11T11:13:39;3.60;;;2.38;;
16127;SDS011;8168;49.036;7.690;2022-08-11T11:16:28;2.65;;;2.05;;
16127;SDS011;8168;49.036;7.690;2022-08-11T11:19:19;3.17;;;2.40;;
16127;SDS011;8168;49.036;7.690;2022-08-11T11:21:54;2.65;;;1.98;;
16127;SDS011;8168;49.036;7.690;2022-08-11T11:27:37;2.17;;;2.00;;
16127;SDS011;8168;49.036;7.690;2022-08-11T11:30:16;3.13;;;2.40;;
16127;SDS011;8168;49.036;7.690;2022-08-11T11:35:46;3.58;;;2.00;;
16127;SDS011;8168;49.036;7.690;2022-08-11T11:38:25;3.45;;;2.10;;
16127;SDS011;8168;49.036;7.690;2022-08-11T11:40:57;2.45;;;2.20;;
16127;SDS011;8168;49.036;7.690;2022-08-11T11:43:47;3.28;;;2.20;;
16127;SDS011;8168;49.036;7.690;2022-08-11T11:46:18;2.30;;;2.10;;
16127;SDS011;8168;49.036;7.690;2022-08-11T11:48:49;3.10;;;1.83;;
16127;SDS011;8168;49.036;7.690;2022-08-11T11:51:21;2.17;;;1.98;;
16127;SDS011;8168;49.036;7.690;2022-08-11T11:53:52;4.35;;;2.20;;
16127;SDS011;8168;49.036;7.690;2022-08-11T11:56:24;3.55;;;2.22;;
16127;SDS011;8168;49.036;7.690;2022-08-11T11:58:55;3.72;;;2.10;;
16127;SDS011;8168;49.036;7.690;2022-08-11T12:01:44;3.75;;;2.33;;
16127;SDS011;8168;49.036;7.690;2022-08-11T12:04:15;2.30;;;2.10;;
16127;SDS011;8168;49.036;7.690;2022-08-11T12:06:49;2.30;;;2.10;;
16127;SDS011;8168;49.036;7.690;2022-08-11T12:09:40;2.35;;;2.15;;
16127;SDS011;8168;49.036;7.690;2022-08-11T12:12:11;5.32;;;2.35;;
16127;SDS011;8168;49.036;7.690;2022-08-11T12:15:00;3.22;;;2.50;;
16127;SDS011;8168;49.036;7.690;2022-08-11T12:17:31;2.40;;;2.20;;
16127;SDS011;8168;49.036;7.690;2022-08-11T12:20:03;2.45;;;2.10;;
16127;SDS011;8168;49.036;7.690;2022-08-11T12:22:34;2.28;;;2.08;;
16127;SDS011;8168;49.036;7.690;2022-08-11T12:25:24;5.18;;;2.20;;
16127;SDS011;8168;49.036;7.690;2022-08-11T12:28:13;2.28;;;2.08;;
16127;SDS011;8168;49.036;7.690;2022-08-11T12:30:44;2.38;;;2.13;;
16127;SDS011;8168;49.036;7.690;2022-08-11T12:33:16;2.80;;;2.03;;
16127;SDS011;8168;49.036;7.690;2022-08-11T12:35:52;2.30;;;2.10;;
16127;SDS011;8168;49.036;7.690;2022-08-11T12:38:27;2.55;;;1.95;;
16127;SDS011;8168;49.036;7.690;2022-08-11T12:40:58;7.38;;;2.33;;
16127;SDS011;8168;49.036;7.690;2022-08-11T12:43:48;1.90;;;1.80;;
16127;SDS011;8168;49.036;7.690;2022-08-11T12:46:38;3.83;;;2.30;;
16127;SDS011;8168;49.036;7.690;2022-08-11T12:49:14;2.00;;;1.90;;
16127;SDS011;8168;49.036;7.690;2022-08-11T12:52:08;2.05;;;1.92;;
16127;SDS011;8168;49.036;7.690;2022-08-11T12:54:44;2.25;;;2.05;;
16127;SDS011;8168;49.036;7.690;2022-08-11T12:57:30;2.55;;;1.90;;
16127;SDS011;8168;49.036;7.690;2022-08-11T13:00:25;3.20;;;2.17;;
16127;SDS011;8168;49.036;7.690;2022-08-11T13:03:17;2.22;;;1.98;;
16127;SDS011;8168;49.036;7.690;2022-08-11T13:06:08;4.88;;;1.90;;
16127;SDS011;8168;49.036;7.690;2022-08-11T13:08:40;2.30;;;1.80;;
16127;SDS011;8168;49.036;7.690;2022-08-11T13:11:11;2.03;;;1.83;;
16127;SDS011;8168;49.036;7.690;2022-08-11T13:14:04;2.13;;;1.98;;
16127;SDS011;8168;49.036;7.690;2022-08-11T13:16:35;2.35;;;2.15;;
16127;SDS011;8168;49.036;7.690;2022-08-11T13:19:26;2.50;;;2.00;;
16127;SDS011;8168;49.036;7.690;2022-08-11T13:21:57;2.05;;;1.77;;
16127;SDS011;8168;49.036;7.690;2022-08-11T13:24:29;2.17;;;1.95;;
16127;SDS011;8168;49.036;7.690;2022-08-11T13:27:03;2.92;;;1.80;;
16127;SDS011;8168;49.036;7.690;2022-08-11T13:29:34;2.28;;;1.80;;
16127;SDS011;8168;49.036;7.690;2022-08-11T13:32:05;3.30;;;1.90;;
16127;SDS011;8168;49.036;7.690;2022-08-11T13:34:36;4.75;;;2.20;;
16127;SDS011;8168;49.036;7.690;2022-08-11T13:37:12;2.13;;;1.75;;
16127;SDS011;8168;49.036;7.690;2022-08-11T13:39:44;4.25;;;2.03;;
16127;SDS011;8168;49.036;7.690;2022-08-11T13:42:16;2.08;;;1.88;;
16127;SDS011;8168;49.036;7.690;2022-08-11T13:44:49;2.60;;;1.60;;
16127;SDS011;8168;49.036;7.690;2022-08-11T13:47:20;1.85;;;1.70;;
16127;SDS011;8168;49.036;7.690;2022-08-11T13:49:53;2.00;;;1.90;;
16127;SDS011;8168;49.036;7.690;2022-08-11T13:52:26;2.22;;;1.90;;
16127;SDS011;8168;49.036;7.690;2022-08-11T13:54:57;1.95;;;1.70;;
16127;SDS011;8168;49.036;7.690;2022-08-11T13:57:29;4.10;;;1.55;;
16127;SDS011;8168;49.036;7.690;2022-08-11T14:00:06;4.07;;;1.88;;
16127;SDS011;8168;49.036;7.690;2022-08-11T14:02:42;1.85;;;1.73;;
16127;SDS011;8168;49.036;7.690;2022-08-11T14:05:18;1.58;;;1.48;;
16127;SDS011;8168;49.036;7.690;2022-08-11T14:07:58;1.88;;;1.77;;
16127;SDS011;8168;49.036;7.690;2022-08-11T14:10:31;2.00;;;1.80;;
16127;SDS011;8168;49.036;7.690;2022-08-11T14:13:09;1.90;;;1.77;;
16127;SDS011;8168;49.036;7.690;2022-08-11T14:16:03;1.70;;;1.60;;
16127;SDS011;8168;49.036;7.690;2022-08-11T14:18:39;2.38;;;2.17;;
16127;SDS011;8168;49.036;7.690;2022-08-11T14:21:15;2.10;;;1.75;;
16127;SDS011;8168;49.036;7.690;2022-08-11T14:24:05;1.67;;;1.58;;
16127;SDS011;8168;49.036;7.690;2022-08-11T14:26:37;3.47;;;1.52;;
16127;SDS011;8168;49.036;7.690;2022-08-11T14:29:13;2.08;;;1.60;;
16127;SDS011;8168;49.036;7.690;2022-08-11T14:31:49;1.90;;;1.80;;
16127;SDS011;8168;49.036;7.690;2022-08-11T14:34:24;2.13;;;1.98;;
16127;SDS011;8168;49.036;7.690;2022-08-11T14:36:58;3.47;;;2.13;;
16127;SDS011;8168;49.036;7.690;2022-08-11T14:39:45;5.90;;;1.95;;
16127;SDS011;8168;49.036;7.690;2022-08-11T14:42:18;2.60;;;1.90;;
16127;SDS011;8168;49.036;7.690;2022-08-11T14:45:09;3.67;;;2.00;;
16127;SDS011;8168;49.036;7.690;2022-08-11T14:48:03;7.90;;;1.70;;
16127;SDS011;8168;49.036;7.690;2022-08-11T14:50:37;4.15;;;2.30;;
16127;SDS011;8168;49.036;7.690;2022-08-11T14:53:09;2.80;;;1.65;;
16127;SDS011;8168;49.036;7.690;2022-08-11T14:55:41;3.17;;;1.70;;
16127;SDS011;8168;49.036;7.690;2022-08-11T14:58:31;2.38;;;1.80;;
16127;SDS011;8168;49.036;7.690;2022-08-11T15:01:03;1.75;;;1.65;;
16127;SDS011;8168;49.036;7.690;2022-08-11T15:03:56;2.10;;;1.80;;
16127;SDS011;8168;49.036;7.690;2022-08-11T15:06:28;2.15;;;1.92;;
16127;SDS011;8168;49.036;7.690;2022-08-11T15:08:59;3.03;;;1.80;;
16127;SDS011;8168;49.036;7.690;2022-08-11T15:11:32;3.92;;;1.70;;
16127;SDS011;8168;49.036;7.690;2022-08-11T15:14:21;4.55;;;2.05;;
16127;SDS011;8168;49.036;7.690;2022-08-11T15:17:11;3.42;;;1.60;;
16127;SDS011;8168;49.036;7.690;2022-08-11T15:19:43;7.40;;;1.95;;
16127;SDS011;8168;49.036;7.690;2022-08-11T15:22:33;5.00;;;2.08;;
16127;SDS011;8168;49.036;7.690;2022-08-11T15:25:22;1.88;;;1.77;;
16127;SDS011;8168;49.036;7.690;2022-08-11T15:27:53;3.70;;;1.80;;
16127;SDS011;8168;49.036;7.690;2022-08-11T15:30:43;1.90;;;1.80;;
16127;SDS011;8168;49.036;7.690;2022-08-11T15:33:34;2.70;;;1.70;;
16127;SDS011;8168;49.036;7.690;2022-08-11T15:36:28;2.97;;;2.25;;
16127;SDS011;8168;49.036;7.690;2022-08-11T15:39:18;2.60;;;1.88;;
16127;SDS011;8168;49.036;7.690;2022-08-11T15:41:53;2.15;;;1.73;;
16127;SDS011;8168;49.036;7.690;2022-08-11T15:44:58;2.00;;;1.90;;
16127;SDS011;8168;49.036;7.690;2022-08-11T15:47:51;2.00;;;1.80;;
16127;SDS011;8168;49.036;7.690;2022-08-11T15:50:29;3.90;;;1.60;;
16127;SDS011;8168;49.036;7.690;2022-08-11T15:53:05;2.42;;;1.70;;
16127;SDS011;8168;49.036;7.690;2022-08-11T15:55:41;3.28;;;2.08;;
16127;SDS011;8168;49.036;7.690;2022-08-11T15:58:12;2.35;;;1.90;;
16127;SDS011;8168;49.036;7.690;2022-08-11T16:01:03;1.90;;;1.80;;
16127;SDS011;8168;49.036;7.690;2022-08-11T16:03:59;1.95;;;1.73;;
16127;SDS011;8168;49.036;7.690;2022-08-11T16:06:52;2.50;;;2.10;;
16127;SDS011;8168;49.036;7.690;2022-08-11T16:09:32;1.98;;;1.88;;
16127;SDS011;8168;49.036;7.690;2022-08-11T16:12:07;3.30;;;2.08;;
16127;SDS011;8168;49.036;7.690;2022-08-11T16:14:42;4.97;;;1.98;;
16127;SDS011;8168;49.036;7.690;2022-08-11T16:18:18;1.90;;;1.80;;
16127;SDS011;8168;49.036;7.690;2022-08-11T16:20:30;4.78;;;2.20;;
16127;SDS011;8168;49.036;7.690;2022-08-11T16:23:03;3.20;;;2.15;;
16127;SDS011;8168;49.036;7.690;2022-08-11T16:25:35;2.03;;;1.90;;
16127;SDS011;8168;49.036;7.690;2022-08-11T16:28:06;1.85;;;1.75;;
16127;SDS011;8168;49.036;7.690;2022-08-11T16:30:41;3.13;;;2.20;;
16127;SDS011;8168;49.036;7.690;2022-08-11T16:33:15;2.28;;;1.70;;
16127;SDS011;8168;49.036;7.690;2022-08-11T16:35:49;2.10;;;1.90;;
16127;SDS011;8168;49.036;7.690;2022-08-11T16:38:39;3.13;;;2.00;;
16127;SDS011;8168;49.036;7.690;2022-08-11T16:41:12;2.28;;;2.05;;
16127;SDS011;8168;49.036;7.690;2022-08-11T16:44:11;2.92;;;1.83;;
16127;SDS011;8168;49.036;7.690;2022-08-11T16:47:02;1.95;;;1.85;;
16127;SDS011;8168;49.036;7.690;2022-08-11T16:49:38;3.22;;;1.70;;
16127;SDS011;8168;49.036;7.690;2022-08-11T16:52:13;2.10;;;2.00;;
16127;SDS011;8168;49.036;7.690;2022-08-11T16:54:45;2.42;;;2.00;;
16127;SDS011;8168;49.036;7.690;2022-08-11T16:57:21;5.15;;;1.95;;
16127;SDS011;8168;49.036;7.690;2022-08-11T17:00:13;2.20;;;2.00;;
16127;SDS011;8168;49.036;7.690;2022-08-11T17:02:46;2.78;;;1.80;;
16127;SDS011;8168;49.036;7.690;2022-08-11T17:05:41;3.90;;;2.10;;
16127;SDS011;8168;49.036;7.690;2022-08-11T17:08:36;1.90;;;1.75;;
16127;SDS011;8168;49.036;7.690;2022-08-11T17:11:33;2.00;;;1.80;;
16127;SDS011;8168;49.036;7.690;2022-08-11T17:14:39;4.97;;;1.95;;
16127;SDS011;8168;49.036;7.690;2022-08-11T17:17:16;3.08;;;1.83;;
16127;SDS011;8168;49.036;7.690;2022-08-11T17:19:54;2.13;;;1.80;;
16127;SDS011;8168;49.036;7.690;2022-08-11T17:22:28;3.78;;;2.85;;
16127;SDS011;8168;49.036;7.690;2022-08-11T17:25:18;2.55;;;1.80;;
16127;SDS011;8168;49.036;7.690;2022-08-11T17:27:52;2.03;;;1.92;;
16127;SDS011;8168;49.036;7.690;2022-08-11T17:30:25;3.00;;;2.00;;
16127;SDS011;8168;49.036;7.690;2022-08-11T17:33:18;2.55;;;1.83;;
16127;SDS011;8168;49.036;7.690;2022-08-11T17:36:09;2.63;;;2.17;;
16127;SDS011;8168;49.036;7.690;2022-08-11T17:38:41;3.00;;;2.00;;
16127;SDS011;8168;49.036;7.690;2022-08-11T17:41:13;2.35;;;2.10;;
16127;SDS011;8168;49.036;7.690;2022-08-11T17:44:04;2.13;;;1.92;;
16127;SDS011;8168;49.036;7.690;2022-08-11T17:46:54;6.18;;;2.00;;
16127;SDS011;8168;49.036;7.690;2022-08-11T17:49:43;4.18;;;2.03;;
16127;SDS011;8168;49.036;7.690;2022-08-11T17:52:14;3.42;;;2.28;;
16127;SDS011;8168;49.036;7.690;2022-08-11T17:55:04;4.07;;;2.25;;
16127;SDS011;8168;49.036;7.690;2022-08-11T17:57:55;3.30;;;1.77;;
16127;SDS011;8168;49.036;7.690;2022-08-11T18:00:45;1.73;;;1.63;;
16127;SDS011;8168;49.036;7.690;2022-08-11T18:03:20;5.65;;;1.98;;
16127;SDS011;8168;49.036;7.690;2022-08-11T18:06:08;3.58;;;1.83;;
16127;SDS011;8168;49.036;7.690;2022-08-11T18:08:45;3.15;;;1.88;;
16127;SDS011;8168;49.036;7.690;2022-08-11T18:11:35;2.97;;;1.83;;
16127;SDS011;8168;49.036;7.690;2022-08-11T18:14:25;1.95;;;1.75;;
16127;SDS011;8168;49.036;7.690;2022-08-11T18:17:16;3.20;;;1.90;;
16127;SDS011;8168;49.036;7.690;2022-08-11T18:20:05;2.78;;;1.95;;
16127;SDS011;8168;49.036;7.690;2022-08-11T18:22:55;3.05;;;1.80;;
16127;SDS011;8168;49.036;7.690;2022-08-11T18:25:46;2.38;;;1.67;;
16127;SDS011;8168;49.036;7.690;2022-08-11T18:28:41;1.98;;;1.80;;
16127;SDS011;8168;49.036;7.690;2022-08-11T18:31:35;2.03;;;1.77;;
16127;SDS011;8168;49.036;7.690;2022-08-11T18:34:29;2.95;;;1.95;;
16127;SDS011;8168;49.036;7.690;2022-08-11T18:37:24;2.03;;;1.88;;
16127;SDS011;8168;49.036;7.690;2022-08-11T18:40:19;1.95;;;1.75;;
16127;SDS011;8168;49.036;7.690;2022-08-11T18:43:13;2.13;;;1.98;;
16127;SDS011;8168;49.036;7.690;2022-08-11T18:46:05;1.90;;;1.80;;
16127;SDS011;8168;49.036;7.690;2022-08-11T18:49:00;1.98;;;1.88;;
16127;SDS011;8168;49.036;7.690;2022-08-11T18:51:54;2.42;;;2.20;;
16127;SDS011;8168;49.036;7.690;2022-08-11T18:54:45;1.98;;;1.88;;
16127;SDS011;8168;49.036;7.690;2022-08-11T18:57:37;2.10;;;1.73;;
16127;SDS011;8168;49.036;7.690;2022-08-11T19:00:27;2.63;;;1.90;;
16127;SDS011;8168;49.036;7.690;2022-08-11T19:03:17;2.30;;;2.00;;
16127;SDS011;8168;49.036;7.690;2022-08-11T19:06:09;2.72;;;2.00;;
16127;SDS011;8168;49.036;7.690;2022-08-11T19:09:01;3.88;;;2.15;;
16127;SDS011;8168;49.036;7.690;2022-08-11T19:11:59;6.18;;;3.38;;
16127;SDS011;8168;49.036;7.690;2022-08-11T19:14:49;5.13;;;2.83;;
16127;SDS011;8168;49.036;7.690;2022-08-11T19:17:40;3.22;;;2.67;;
16127;SDS011;8168;49.036;7.690;2022-08-11T19:20:32;3.63;;;3.33;;
16127;SDS011;8168;49.036;7.690;2022-08-11T19:23:27;3.63;;;3.30;;
16127;SDS011;8168;49.036;7.690;2022-08-11T19:26:29;2.95;;;2.20;;
16127;SDS011;8168;49.036;7.690;2022-08-11T19:29:21;2.90;;;2.67;;
16127;SDS011;8168;49.036;7.690;2022-08-11T19:32:12;4.28;;;2.72;;
16127;SDS011;8168;49.036;7.690;2022-08-11T19:35:02;3.60;;;2.60;;
16127;SDS011;8168;49.036;7.690;2022-08-11T19:37:52;3.13;;;2.40;;
16127;SDS011;8168;49.036;7.690;2022-08-11T19:40:43;2.40;;;2.20;;
16127;SDS011;8168;49.036;7.690;2022-08-11T19:43:34;4.10;;;2.47;;
16127;SDS011;8168;49.036;7.690;2022-08-11T19:46:25;3.97;;;2.65;;
16127;SDS011;8168;49.036;7.690;2022-08-11T19:49:15;5.00;;;2.90;;
16127;SDS011;8168;49.036;7.690;2022-08-11T19:52:06;3.10;;;2.90;;
16127;SDS011;8168;49.036;7.690;2022-08-11T19:54:55;3.20;;;2.90;;
16127;SDS011;8168;49.036;7.690;2022-08-11T19:57:45;2.77;;;2.47;;
16127;SDS011;8168;49.036;7.690;2022-08-11T20:00:36;5.05;;;2.30;;
16127;SDS011;8168;49.036;7.690;2022-08-11T20:03:27;2.97;;;2.37;;